Time;durP1;ratioP1;P1;durP2;ratioP2;P2;SDS_P1;SDS_P2;PMS_P1;PMS_P2;Temp;Humidity;BMP_temperature;BMP_pressure;BME280_temperature;BME280_humidity;BME280_pressure;Samples;Min_cycle;Max_cycle;Signal;HPM_P1;HPM_P2
2022/01/08 00:00:07;;;;;;;26.30;14.73;;;;;;;;;;4955469;28;96132;-73
2022/01/08 00:02:33;;;;;;;30.05;16.27;;;;;;;;;;4955354;28;96851;-74
2022/01/08 00:05:00;;;;;;;32.30;16.15;;;;;;;;;;4977099;28;96048;-75
2022/01/08 00:07:27;;;;;;;24.70;15.05;;;;;;;;;;4964962;28;97223;-73
2022/01/08 00:09:53;;;;;;;27.88;14.98;;;;;;;;;;4941935;28;97307;-76
2022/01/08 00:12:20;;;;;;;31.00;16.10;;;;;;;;;;4935348;28;95396;-75
2022/01/08 00:14:46;;;;;;;28.00;16.05;;;;;;;;;;4936080;28;96835;-76
2022/01/08 00:17:13;;;;;;;24.50;15.52;;;;;;;;;;4940292;28;97453;-76
2022/01/08 00:19:39;;;;;;;28.20;16.15;;;;;;;;;;4957489;28;95344;-76
2022/01/08 00:22:06;;;;;;;36.60;16.48;;;;;;;;;;4974189;28;96881;-76
2022/01/08 00:24:32;;;;;;;32.15;16.20;;;;;;;;;;4959105;28;97533;-76
2022/01/08 00:26:58;;;;;;;27.67;16.95;;;;;;;;;;4939482;28;95744;-76
2022/01/08 00:29:25;;;;;;;27.83;17.05;;;;;;;;;;4938633;28;97365;-76
2022/01/08 00:31:51;;;;;;;28.85;16.17;;;;;;;;;;4963944;28;95464;-76
2022/01/08 00:34:17;;;;;;;29.48;16.23;;;;;;;;;;4974342;28;97198;-76
2022/01/08 00:36:44;;;;;;;29.38;16.00;;;;;;;;;;4973812;28;97331;-76
2022/01/08 00:39:10;;;;;;;35.83;18.38;;;;;;;;;;4954604;28;95530;-76
2022/01/08 00:41:36;;;;;;;31.90;15.80;;;;;;;;;;4953529;28;96873;-76
2022/01/08 00:44:03;;;;;;;30.63;15.88;;;;;;;;;;4953715;28;97699;-76
2022/01/08 00:46:29;;;;;;;28.80;16.17;;;;;;;;;;4954195;28;95403;-76
2022/01/08 00:48:56;;;;;;;25.48;15.65;;;;;;;;;;4956731;28;97189;-76
2022/01/08 00:51:22;;;;;;;26.75;15.10;;;;;;;;;;4954433;28;95303;-76
2022/01/08 00:53:48;;;;;;;25.67;14.77;;;;;;;;;;4971549;28;96848;-76
2022/01/08 00:56:15;;;;;;;34.03;15.48;;;;;;;;;;4972394;28;97307;-75
2022/01/08 00:58:41;;;;;;;26.20;15.68;;;;;;;;;;4962323;28;95936;-76
2022/01/08 01:01:08;;;;;;;30.67;15.20;;;;;;;;;;4953719;28;96883;-75
2022/01/08 01:03:35;;;;;;;29.15;15.57;;;;;;;;;;4954166;28;97664;-75
2022/01/08 01:06:01;;;;;;;23.90;14.95;;;;;;;;;;4954239;28;95412;-76
2022/01/08 01:08:27;;;;;;;32.25;15.60;;;;;;;;;;4962493;28;97119;-75
2022/01/08 01:10:54;;;;;;;31.67;16.45;;;;;;;;;;4937624;28;97388;-76
2022/01/08 01:13:20;;;;;;;27.65;14.95;;;;;;;;;;4933876;28;96992;-76
2022/01/08 01:15:46;;;;;;;28.60;14.50;;;;;;;;;;4933654;28;97417;-76
2022/01/08 01:18:13;;;;;;;28.77;14.85;;;;;;;;;;4940022;28;96377;-76
2022/01/08 01:20:39;;;;;;;26.98;15.43;;;;;;;;;;4953078;28;97010;-75
2022/01/08 01:23:11;;;;;;;29.75;14.35;;;;;;;;;;4969535;28;97631;-75
2022/01/08 01:25:48;;;;;;;21.95;13.40;;;;;;;;;;4974091;28;95944;-75
2022/01/08 01:49:04;;;;;;;26.92;12.90;;;;;;;;;;4952421;28;96772;-77
2022/01/08 01:51:30;;;;;;;27.45;13.07;;;;;;;;;;4950727;28;97433;-76
2022/01/08 01:53:57;;;;;;;22.20;14.07;;;;;;;;;;4961359;28;96995;-75
2022/01/08 01:56:23;;;;;;;23.65;12.80;;;;;;;;;;4971366;28;97288;-74
2022/01/08 01:58:50;;;;;;;26.30;12.95;;;;;;;;;;4970669;28;95328;-76
2022/01/08 02:01:16;;;;;;;25.08;12.65;;;;;;;;;;4953305;28;96983;-76
2022/01/08 02:03:43;;;;;;;25.73;13.38;;;;;;;;;;4946749;28;97647;-77
2022/01/08 02:06:09;;;;;;;31.92;13.95;;;;;;;;;;4933827;28;95253;-75
2022/01/08 02:08:38;;;;;;;25.60;12.18;;;;;;;;;;4940792;28;96890;-73
2022/01/08 02:11:06;;;;;;;28.50;13.48;;;;;;;;;;4953010;28;97678;-76
2022/01/08 02:13:32;;;;;;;29.58;13.32;;;;;;;;;;4952898;28;95395;-73
2022/01/08 02:16:01;;;;;;;27.88;13.30;;;;;;;;;;4955245;28;98613;-73
2022/01/08 02:18:28;;;;;;;24.98;13.25;;;;;;;;;;4946639;28;95332;-72
2022/01/08 02:20:55;;;;;;;30.13;13.65;;;;;;;;;;4951344;28;96910;-73
2022/01/08 02:23:22;;;;;;;23.38;13.15;;;;;;;;;;4952396;28;97660;-73
2022/01/08 02:25:49;;;;;;;26.90;12.15;;;;;;;;;;4953544;28;95264;-73
2022/01/08 02:28:16;;;;;;;21.05;11.20;;;;;;;;;;4952920;28;95831;-75
2022/01/08 02:30:43;;;;;;;23.58;11.82;;;;;;;;;;4951273;28;97674;-73
2022/01/08 02:33:10;;;;;;;22.33;10.52;;;;;;;;;;4952808;28;95331;-73
2022/01/08 02:35:37;;;;;;;30.25;12.65;;;;;;;;;;4953285;28;96733;-73
2022/01/08 02:38:03;;;;;;;20.25;11.60;;;;;;;;;;4954960;28;97584;-73
2022/01/08 02:40:30;;;;;;;26.15;12.10;;;;;;;;;;4952667;28;97186;-73
2022/01/08 02:43:03;;;;;;;21.85;12.15;;;;;;;;;;4952708;28;97837;-72
2022/01/08 02:45:30;;;;;;;22.45;11.60;;;;;;;;;;4952199;28;96025;-73
2022/01/08 02:47:57;;;;;;;28.08;11.65;;;;;;;;;;4953222;28;97115;-73
2022/01/08 02:50:24;;;;;;;19.73;11.25;;;;;;;;;;4944388;28;97322;-73
2022/01/08 02:52:50;;;;;;;25.42;11.55;;;;;;;;;;4952283;28;95371;-73
2022/01/08 02:55:18;;;;;;;24.45;11.30;;;;;;;;;;4952712;28;96864;-73
2022/01/08 02:57:44;;;;;;;26.70;11.48;;;;;;;;;;4952588;28;97227;-73
2022/01/08 03:00:12;;;;;;;24.13;11.75;;;;;;;;;;4965152;28;95501;-73
2022/01/08 03:02:42;;;;;;;23.88;12.90;;;;;;;;;;4952430;28;97426;-73
2022/01/08 03:05:11;;;;;;;21.27;11.60;;;;;;;;;;4952196;28;95289;-75
2022/01/08 03:07:38;;;;;;;28.10;11.90;;;;;;;;;;4952350;28;97163;-73
2022/01/08 03:10:05;;;;;;;23.30;11.82;;;;;;;;;;4951221;28;97849;-75
2022/01/08 03:12:32;;;;;;;24.38;11.90;;;;;;;;;;4952349;28;95332;-73
2022/01/08 03:14:59;;;;;;;18.90;12.18;;;;;;;;;;4952732;28;97207;-74
2022/01/08 03:17:25;;;;;;;24.73;12.00;;;;;;;;;;4952099;28;97680;-73
2022/01/08 03:19:53;;;;;;;21.08;11.45;;;;;;;;;;4951254;28;95305;-73
2022/01/08 03:22:19;;;;;;;35.03;11.95;;;;;;;;;;4955143;28;97046;-73
2022/01/08 03:24:46;;;;;;;24.75;12.00;;;;;;;;;;4967736;28;95109;-74
2022/01/08 03:27:13;;;;;;;25.83;11.80;;;;;;;;;;4971388;28;96800;-74
2022/01/08 03:29:39;;;;;;;23.63;11.20;;;;;;;;;;4971518;28;97476;-76
2022/01/08 03:32:06;;;;;;;25.88;10.43;;;;;;;;;;4970741;28;95310;-73
2022/01/08 03:34:32;;;;;;;21.67;10.02;;;;;;;;;;4971286;28;97237;-74
2022/01/08 03:36:58;;;;;;;17.63;9.57;;;;;;;;;;4971761;28;97724;-76
2022/01/08 03:39:25;;;;;;;21.40;9.52;;;;;;;;;;4963304;28;95599;-76
2022/01/08 03:41:52;;;;;;;18.92;9.77;;;;;;;;;;4951622;28;97138;-74
2022/01/08 03:44:19;;;;;;;20.42;9.35;;;;;;;;;;4954946;28;95191;-76
2022/01/08 03:46:45;;;;;;;26.73;9.80;;;;;;;;;;4952434;28;96715;-76
2022/01/08 03:49:23;;;;;;;22.08;9.35;;;;;;;;;;4950752;28;97749;-76
2022/01/08 03:51:53;;;;;;;22.38;9.57;;;;;;;;;;4952345;28;95183;-76
2022/01/08 03:54:20;;;;;;;27.85;9.57;;;;;;;;;;4952265;28;95402;-77
2022/01/08 03:56:46;;;;;;;32.55;10.63;;;;;;;;;;4951445;28;97379;-74
2022/01/08 03:59:13;;;;;;;28.90;9.88;;;;;;;;;;4947903;28;95313;-75
2022/01/08 04:01:39;;;;;;;25.08;10.68;;;;;;;;;;4931531;28;96630;-76
2022/01/08 04:04:06;;;;;;;25.80;11.02;;;;;;;;;;4934745;28;96658;-75
2022/01/08 04:06:32;;;;;;;31.92;10.55;;;;;;;;;;4946961;28;97222;-76
2022/01/08 04:08:59;;;;;;;27.95;10.07;;;;;;;;;;4943681;28;97303;-77
2022/01/08 04:11:26;;;;;;;19.50;10.07;;;;;;;;;;4955752;28;95298;-77
2022/01/08 04:13:53;;;;;;;22.58;10.27;;;;;;;;;;4955411;28;97301;-77
2022/01/08 04:16:25;;;;;;;20.48;10.15;;;;;;;;;;4954411;28;97385;-76
2022/01/08 04:18:51;;;;;;;16.80;10.20;;;;;;;;;;4954949;28;95594;-76
2022/01/08 04:24:01;;;;;;;26.88;11.02;;;;;;;;;;4954655;28;96348;-77
2022/01/08 04:26:27;;;;;;;20.08;10.60;;;;;;;;;;4956071;28;95397;-79
2022/01/08 04:28:54;;;;;;;21.65;11.30;;;;;;;;;;4955016;28;97355;-78
2022/01/08 04:31:21;;;;;;;32.95;10.23;;;;;;;;;;4952546;28;95330;-73
2022/01/08 04:33:48;;;;;;;20.70;10.35;;;;;;;;;;4953966;28;96777;-74
2022/01/08 04:36:16;;;;;;;27.67;11.70;;;;;;;;;;4953523;28;97388;-73
2022/01/08 04:38:42;;;;;;;23.75;10.40;;;;;;;;;;4962009;28;95407;-73
2022/01/08 04:41:09;;;;;;;20.13;10.52;;;;;;;;;;4964237;28;96815;-74
2022/01/08 04:43:37;;;;;;;23.17;10.70;;;;;;;;;;4954822;28;97294;-74
2022/01/08 04:46:04;;;;;;;20.48;10.63;;;;;;;;;;4953460;28;95599;-74
2022/01/08 04:48:31;;;;;;;26.38;11.02;;;;;;;;;;4956413;28;97193;-74
2022/01/08 04:50:57;;;;;;;24.75;10.70;;;;;;;;;;4954407;28;95709;-75
2022/01/08 04:53:23;;;;;;;20.80;9.95;;;;;;;;;;4954281;28;97017;-75
2022/01/08 04:55:50;;;;;;;27.77;10.40;;;;;;;;;;4953812;28;97338;-76
2022/01/08 04:58:16;;;;;;;18.25;9.82;;;;;;;;;;4953768;28;95308;-73
2022/01/08 05:00:42;;;;;;;26.20;9.98;;;;;;;;;;4953429;28;96791;-75
2022/01/08 05:03:09;;;;;;;22.17;10.20;;;;;;;;;;4953476;28;97286;-75
2022/01/08 05:05:35;;;;;;;22.08;9.57;;;;;;;;;;4942824;28;95414;-76
2022/01/08 05:08:02;;;;;;;27.15;9.07;;;;;;;;;;4948183;28;97194;-74
2022/01/08 05:10:33;;;;;;;23.00;9.65;;;;;;;;;;4976745;28;97328;-76
2022/01/08 05:13:04;;;;;;;20.30;8.73;;;;;;;;;;4934718;28;97335;-74
2022/01/08 05:15:30;;;;;;;15.30;8.45;;;;;;;;;;4940703;28;97491;-73
2022/01/08 05:17:57;;;;;;;19.08;9.85;;;;;;;;;;4954562;28;95310;-75
2022/01/08 05:20:26;;;;;;;16.65;9.07;;;;;;;;;;4953959;28;96794;-75
2022/01/08 05:22:59;;;;;;;16.77;8.27;;;;;;;;;;4953831;28;97330;-75
2022/01/08 05:25:32;;;;;;;20.38;9.27;;;;;;;;;;4953847;28;95439;-73
2022/01/08 05:28:00;;;;;;;26.52;8.93;;;;;;;;;;4954709;28;97216;-73
2022/01/08 05:30:27;;;;;;;26.70;9.73;;;;;;;;;;4953536;28;97676;-72
2022/01/08 05:32:54;;;;;;;16.83;8.88;;;;;;;;;;4957242;28;95517;-75
2022/01/08 05:35:21;;;;;;;18.52;9.48;;;;;;;;;;4952015;28;97239;-75
2022/01/08 05:37:47;;;;;;;19.15;9.15;;;;;;;;;;4956253;28;95304;-76
2022/01/08 05:40:14;;;;;;;24.83;9.40;;;;;;;;;;4973643;28;97135;-76
2022/01/08 05:42:40;;;;;;;20.48;9.15;;;;;;;;;;4972949;28;97651;-75
2022/01/08 05:45:07;;;;;;;23.85;9.50;;;;;;;;;;4962055;28;95141;-74
2022/01/08 05:47:34;;;;;;;23.05;10.10;;;;;;;;;;4953625;28;96907;-77
2022/01/08 05:50:01;;;;;;;20.65;8.93;;;;;;;;;;4952286;28;97334;-76
2022/01/08 05:52:28;;;;;;;18.27;8.73;;;;;;;;;;4962383;28;96499;-75
2022/01/08 05:54:54;;;;;;;20.35;8.40;;;;;;;;;;4948854;28;97310;-74
2022/01/08 05:57:20;;;;;;;28.13;8.45;;;;;;;;;;4937679;28;95328;-77
2022/01/08 05:59:53;;;;;;;15.63;7.90;;;;;;;;;;4936538;28;97110;-73
2022/01/08 06:02:20;;;;;;;16.60;7.68;;;;;;;;;;4952206;28;98456;-73
2022/01/08 06:04:46;;;;;;;17.58;8.20;;;;;;;;;;4943417;28;95431;-75
2022/01/08 06:07:13;;;;;;;30.70;8.15;;;;;;;;;;4954193;28;96868;-73
2022/01/08 06:09:40;;;;;;;21.90;7.28;;;;;;;;;;4967967;28;97612;-72
2022/01/08 06:12:06;;;;;;;19.38;7.78;;;;;;;;;;4952321;28;95436;-73
2022/01/08 06:14:33;;;;;;;18.55;7.97;;;;;;;;;;4954187;28;97552;-76
2022/01/08 06:16:59;;;;;;;18.80;7.72;;;;;;;;;;4953047;28;95837;-74
2022/01/08 06:19:25;;;;;;;23.45;7.82;;;;;;;;;;4951667;28;97637;-74
2022/01/08 06:21:52;;;;;;;20.17;8.20;;;;;;;;;;4953107;28;97348;-75
2022/01/08 06:24:18;;;;;;;20.08;8.70;;;;;;;;;;4951913;28;95224;-75
2022/01/08 06:26:45;;;;;;;25.20;8.35;;;;;;;;;;4951470;28;97191;-75
2022/01/08 06:29:11;;;;;;;22.88;10.27;;;;;;;;;;4952994;28;97345;-73
2022/01/08 06:31:38;;;;;;;21.55;9.70;;;;;;;;;;4952149;28;95451;-74
2022/01/08 06:34:04;;;;;;;17.48;9.63;;;;;;;;;;4951863;28;97217;-75
2022/01/08 06:36:30;;;;;;;22.27;9.52;;;;;;;;;;4956007;28;97819;-75
2022/01/08 06:38:57;;;;;;;20.92;9.52;;;;;;;;;;4953563;28;97215;-75
2022/01/08 06:41:23;;;;;;;25.50;9.07;;;;;;;;;;4952535;28;97461;-74
2022/01/08 06:43:50;;;;;;;25.13;9.00;;;;;;;;;;4951718;28;95331;-75
2022/01/08 06:46:16;;;;;;;18.70;8.43;;;;;;;;;;4951883;28;97453;-75
2022/01/08 06:48:42;;;;;;;16.38;7.30;;;;;;;;;;4970209;28;97402;-75
2022/01/08 06:51:09;;;;;;;16.45;7.28;;;;;;;;;;4957416;28;95600;-74
2022/01/08 06:53:35;;;;;;;18.80;6.95;;;;;;;;;;4952471;28;96781;-75
2022/01/08 06:56:02;;;;;;;20.80;6.40;;;;;;;;;;4954847;28;97662;-75
2022/01/08 06:58:28;;;;;;;17.02;5.78;;;;;;;;;;4957069;28;95286;-73
2022/01/08 07:00:55;;;;;;;19.38;5.15;;;;;;;;;;4947423;28;97237;-74
2022/01/08 07:03:21;;;;;;;14.02;5.35;;;;;;;;;;4947757;28;96203;-76
2022/01/08 07:05:48;;;;;;;19.80;5.95;;;;;;;;;;4952487;28;96830;-76
2022/01/08 07:08:15;;;;;;;15.75;5.60;;;;;;;;;;4952415;28;97617;-76
2022/01/08 07:10:41;;;;;;;12.05;6.10;;;;;;;;;;4953462;28;95097;-77
2022/01/08 07:13:08;;;;;;;14.18;5.88;;;;;;;;;;4940067;28;96005;-75
2022/01/08 07:15:34;;;;;;;19.05;7.38;;;;;;;;;;4933487;28;97759;-77
2022/01/08 07:18:00;;;;;;;25.42;7.13;;;;;;;;;;4939324;28;95433;-77
2022/01/08 07:20:27;;;;;;;19.13;6.50;;;;;;;;;;4953205;28;96815;-77
2022/01/08 07:22:53;;;;;;;18.35;6.28;;;;;;;;;;4933583;28;97109;-77
2022/01/08 07:25:20;;;;;;;17.85;6.22;;;;;;;;;;4942438;28;96821;-74
2022/01/08 07:27:46;;;;;;;18.92;6.82;;;;;;;;;;4955101;28;97632;-77
2022/01/08 16:04:49;;;;;;;13.50;8.27;;;;;;;;;;5069784;27;1297482;-77
2022/01/08 16:07:15;;;;;;;14.32;9.70;;;;;;;;;;5087060;27;97330;-79
2022/01/08 16:09:41;;;;;;;15.27;8.70;;;;;;;;;;5089419;27;94999;-79
2022/01/08 16:12:08;;;;;;;18.02;8.52;;;;;;;;;;5087181;27;96718;-73
2022/01/08 16:14:34;;;;;;;16.42;8.57;;;;;;;;;;5087159;27;97389;-79
2022/01/08 16:17:01;;;;;;;14.52;9.00;;;;;;;;;;5072841;27;95173;-78
2022/01/08 16:19:27;;;;;;;15.65;9.02;;;;;;;;;;5070989;27;97218;-79
2022/01/08 16:21:53;;;;;;;14.23;9.07;;;;;;;;;;5087731;27;97686;-79
2022/01/08 16:24:21;;;;;;;14.10;9.27;;;;;;;;;;5087388;27;95274;-75
2022/01/08 16:26:49;;;;;;;16.65;8.43;;;;;;;;;;5072970;27;97786;-74
2022/01/08 16:29:16;;;;;;;12.35;8.30;;;;;;;;;;5083237;27;95309;-78
2022/01/08 16:31:43;;;;;;;14.60;9.00;;;;;;;;;;5067753;27;96690;-78
2022/01/08 16:34:10;;;;;;;15.48;9.30;;;;;;;;;;5081769;27;96148;-74
2022/01/08 16:36:36;;;;;;;12.68;8.27;;;;;;;;;;5088234;27;95401;-73
2022/01/08 16:39:03;;;;;;;16.05;9.38;;;;;;;;;;5088860;27;96739;-72
2022/01/08 16:41:29;;;;;;;15.27;8.82;;;;;;;;;;5086430;27;97422;-78
2022/01/08 16:43:55;;;;;;;11.10;8.02;;;;;;;;;;5088606;27;95288;-73
2022/01/08 16:46:22;;;;;;;15.00;8.90;;;;;;;;;;5091461;27;96893;-76
2022/01/08 16:48:48;;;;;;;12.30;8.57;;;;;;;;;;5088616;27;95397;-77
2022/01/08 16:51:15;;;;;;;12.35;8.38;;;;;;;;;;5088030;27;97142;-77
2022/01/08 16:53:43;;;;;;;11.63;7.88;;;;;;;;;;5089691;27;97292;-78
2022/01/08 16:56:09;;;;;;;11.98;7.93;;;;;;;;;;5088269;27;95408;-74
2022/01/08 16:58:36;;;;;;;13.82;8.25;;;;;;;;;;5089179;27;97125;-78
2022/01/08 17:01:02;;;;;;;13.60;7.55;;;;;;;;;;5086121;27;97320;-75
2022/01/08 17:03:29;;;;;;;11.32;7.85;;;;;;;;;;5086991;27;95915;-78
2022/01/08 17:05:55;;;;;;;10.32;7.43;;;;;;;;;;5087554;27;95973;-75
2022/01/08 17:08:22;;;;;;;16.15;7.30;;;;;;;;;;5090674;27;97628;-79
2022/01/08 17:10:55;;;;;;;11.27;7.35;;;;;;;;;;5087890;27;97134;-78
2022/01/08 17:13:23;;;;;;;12.38;7.75;;;;;;;;;;5085275;27;97616;-79
2022/01/08 17:15:49;;;;;;;9.93;7.45;;;;;;;;;;5076400;27;95391;-77
2022/01/08 17:18:16;;;;;;;11.95;7.45;;;;;;;;;;5073584;27;96777;-74
2022/01/08 17:20:44;;;;;;;12.27;7.20;;;;;;;;;;5074635;27;97913;-79
2022/01/08 17:23:10;;;;;;;10.20;6.78;;;;;;;;;;5073345;27;95312;-77
2022/01/08 17:25:36;;;;;;;12.45;8.68;;;;;;;;;;5074328;27;96707;-77
2022/01/08 17:28:03;;;;;;;12.18;8.68;;;;;;;;;;5073286;27;97256;-74
2022/01/08 17:30:29;;;;;;;13.95;7.60;;;;;;;;;;5077168;27;95406;-79
2022/01/08 17:32:55;;;;;;;11.18;8.10;;;;;;;;;;5073219;27;97769;-78
2022/01/08 17:35:22;;;;;;;9.05;7.30;;;;;;;;;;5074365;27;95217;-79
2022/01/08 17:37:50;;;;;;;11.75;6.88;;;;;;;;;;5074485;27;97050;-79
2022/01/08 17:40:16;;;;;;;14.15;8.00;;;;;;;;;;5073218;27;97351;-79
2022/01/08 17:42:43;;;;;;;11.25;7.32;;;;;;;;;;5072924;27;95478;-80
2022/01/08 17:45:10;;;;;;;8.82;6.90;;;;;;;;;;5073609;27;96713;-74
2022/01/08 17:47:36;;;;;;;12.23;8.25;;;;;;;;;;5073707;27;96394;-78
2022/01/08 17:50:04;;;;;;;11.55;7.25;;;;;;;;;;5074131;27;95088;-77
2022/01/08 17:52:31;;;;;;;13.80;7.60;;;;;;;;;;5075840;27;96779;-78
2022/01/08 17:54:57;;;;;;;9.30;6.88;;;;;;;;;;5069463;27;95363;-75
2022/01/08 17:57:23;;;;;;;8.15;6.20;;;;;;;;;;5073615;27;97239;-78
2022/01/08 17:59:50;;;;;;;10.35;6.45;;;;;;;;;;5071450;27;97486;-78
2022/01/08 18:02:17;;;;;;;12.48;7.78;;;;;;;;;;5067978;27;95505;-78
2022/01/08 18:04:43;;;;;;;11.50;7.20;;;;;;;;;;5059972;27;95841;-80
2022/01/08 18:07:11;;;;;;;9.50;6.75;;;;;;;;;;5069105;27;97574;-76
2022/01/08 18:09:39;;;;;;;10.35;7.50;;;;;;;;;;5069556;27;96293;-74
2022/01/08 18:12:07;;;;;;;9.05;7.15;;;;;;;;;;5070335;27;96708;-73
2022/01/08 18:14:34;;;;;;;10.60;6.55;;;;;;;;;;5076094;27;95589;-76
2022/01/08 18:17:00;;;;;;;9.30;6.45;;;;;;;;;;5072921;27;96756;-79
2022/01/08 18:19:26;;;;;;;10.63;7.78;;;;;;;;;;5061525;27;97446;-79
2022/01/08 18:21:53;;;;;;;9.80;6.38;;;;;;;;;;5073444;27;95399;-74
2022/01/08 18:24:19;;;;;;;8.43;6.15;;;;;;;;;;5067387;27;97064;-72
2022/01/08 18:26:46;;;;;;;10.75;7.05;;;;;;;;;;5072761;27;97622;-77
2022/01/08 18:29:12;;;;;;;11.68;7.47;;;;;;;;;;5072843;27;95971;-79
2022/01/08 18:31:39;;;;;;;9.23;6.10;;;;;;;;;;5072791;27;96733;-80
2022/01/08 18:34:05;;;;;;;8.68;5.60;;;;;;;;;;5075766;27;97538;-76
2022/01/08 18:36:32;;;;;;;8.32;6.22;;;;;;;;;;5073594;27;96723;-80
2022/01/08 18:39:05;;;;;;;11.10;7.07;;;;;;;;;;5073027;27;97444;-74
2022/01/08 18:41:32;;;;;;;9.40;6.90;;;;;;;;;;5064538;27;96345;-79
2022/01/08 18:43:59;;;;;;;9.85;6.70;;;;;;;;;;5071717;27;97064;-81
2022/01/08 18:46:25;;;;;;;10.10;6.40;;;;;;;;;;5071071;27;97317;-74
2022/01/08 18:48:52;;;;;;;13.43;7.10;;;;;;;;;;5073302;27;95343;-79
2022/01/08 18:51:18;;;;;;;7.15;5.28;;;;;;;;;;5072895;27;97096;-77
2022/01/08 18:53:44;;;;;;;10.23;6.55;;;;;;;;;;5069724;27;97309;-78
2022/01/08 18:56:11;;;;;;;13.10;7.53;;;;;;;;;;5072362;27;97271;-79
2022/01/08 18:58:37;;;;;;;8.60;6.05;;;;;;;;;;5069275;27;97241;-79
2022/01/08 19:01:04;;;;;;;8.77;6.25;;;;;;;;;;5070354;27;97111;-78
2022/01/08 19:03:30;;;;;;;12.43;7.00;;;;;;;;;;5072189;27;96773;-75
2022/01/08 19:05:57;;;;;;;12.32;7.32;;;;;;;;;;5071439;27;97324;-79
2022/01/08 19:08:23;;;;;;;14.00;6.75;;;;;;;;;;5072755;27;95668;-76
2022/01/08 19:10:50;;;;;;;10.10;6.50;;;;;;;;;;5072637;27;96762;-76
2022/01/08 19:13:16;;;;;;;12.35;6.68;;;;;;;;;;5073166;27;96325;-80
2022/01/08 19:15:43;;;;;;;9.70;6.93;;;;;;;;;;5076859;27;95997;-82
2022/01/08 19:18:11;;;;;;;10.13;6.47;;;;;;;;;;5081071;27;96883;-77
2022/01/08 19:20:37;;;;;;;10.43;7.28;;;;;;;;;;5073240;27;95409;-82
2022/01/08 19:23:04;;;;;;;12.95;6.95;;;;;;;;;;5075085;27;95626;-81
2022/01/08 19:25:36;;;;;;;9.40;6.78;;;;;;;;;;5072574;27;97742;-81
2022/01/08 19:28:07;;;;;;;13.90;7.78;;;;;;;;;;5073409;27;95303;-81
2022/01/08 19:30:34;;;;;;;13.15;7.18;;;;;;;;;;5072374;27;95634;-81
2022/01/08 19:33:01;;;;;;;10.10;6.75;;;;;;;;;;5072509;27;97341;-81
2022/01/08 19:35:27;;;;;;;10.90;7.25;;;;;;;;;;5070621;27;95336;-82
2022/01/08 19:37:54;;;;;;;10.48;7.03;;;;;;;;;;5072548;27;96758;-82
2022/01/08 19:40:21;;;;;;;13.82;7.65;;;;;;;;;;5075618;27;96519;-82
2022/01/08 19:42:47;;;;;;;10.32;7.22;;;;;;;;;;5071910;27;97259;-81
2022/01/08 19:45:14;;;;;;;13.60;7.80;;;;;;;;;;5071279;27;97828;-81
2022/01/08 19:47:40;;;;;;;11.40;7.72;;;;;;;;;;5072183;27;96888;-80
2022/01/08 19:50:07;;;;;;;11.23;7.38;;;;;;;;;;5072751;27;96869;-80
2022/01/08 19:52:34;;;;;;;10.30;6.47;;;;;;;;;;5072491;27;97272;-81
2022/01/08 19:55:01;;;;;;;10.38;6.80;;;;;;;;;;5073045;27;95193;-80
2022/01/08 19:57:27;;;;;;;8.73;6.50;;;;;;;;;;5071604;27;97209;-80
2022/01/08 19:59:55;;;;;;;9.38;6.32;;;;;;;;;;5072673;27;97448;-81
2022/01/08 20:02:22;;;;;;;10.80;6.38;;;;;;;;;;5075279;27;95350;-81
2022/01/08 20:04:48;;;;;;;8.63;6.18;;;;;;;;;;5068436;27;97200;-81
2022/01/08 20:07:15;;;;;;;11.20;6.65;;;;;;;;;;5071889;27;95284;-81
2022/01/08 20:09:42;;;;;;;10.50;6.90;;;;;;;;;;5072651;27;96750;-80
2022/01/08 20:12:10;;;;;;;9.40;6.55;;;;;;;;;;5071718;27;97817;-76
2022/01/08 20:14:36;;;;;;;12.27;6.70;;;;;;;;;;5071356;27;96250;-81
2022/01/08 20:17:03;;;;;;;9.30;6.35;;;;;;;;;;5070478;27;96887;-81
2022/01/08 20:19:30;;;;;;;12.40;6.32;;;;;;;;;;5070010;27;97269;-80
2022/01/08 20:21:56;;;;;;;10.70;6.82;;;;;;;;;;5073996;27;95237;-80
2022/01/08 20:24:23;;;;;;;11.40;6.18;;;;;;;;;;5071046;27;97745;-81
2022/01/08 20:26:49;;;;;;;15.55;7.03;;;;;;;;;;5071797;27;95224;-80
2022/01/08 20:29:16;;;;;;;8.82;6.20;;;;;;;;;;5070827;27;96882;-79
2022/01/08 20:31:42;;;;;;;9.95;6.57;;;;;;;;;;5070414;27;97359;-79
2022/01/08 20:34:09;;;;;;;9.88;5.72;;;;;;;;;;5070661;27;95253;-75
2022/01/08 20:36:35;;;;;;;12.85;6.30;;;;;;;;;;5070411;27;96961;-78
2022/01/08 20:39:02;;;;;;;11.93;7.15;;;;;;;;;;5067914;27;97799;-80
2022/01/08 20:41:28;;;;;;;10.30;6.20;;;;;;;;;;5070648;27;95363;-77
2022/01/08 20:43:55;;;;;;;11.70;5.93;;;;;;;;;;5074059;27;97245;-80
2022/01/08 20:46:21;;;;;;;9.70;6.20;;;;;;;;;;5071671;27;95319;-80
2022/01/08 20:48:48;;;;;;;8.40;5.63;;;;;;;;;;5070156;27;96864;-81
2022/01/08 20:51:15;;;;;;;10.00;6.93;;;;;;;;;;5067645;27;97260;-82
2022/01/08 20:53:41;;;;;;;8.60;6.00;;;;;;;;;;5074141;27;96283;-78
2022/01/08 20:56:07;;;;;;;11.10;5.57;;;;;;;;;;5068322;27;96752;-81
2022/01/08 20:58:38;;;;;;;8.57;5.63;;;;;;;;;;5076157;27;97952;-82
2022/01/08 21:01:05;;;;;;;9.10;5.90;;;;;;;;;;5076365;27;95311;-81
2022/01/08 21:03:45;;;;;;;8.93;6.63;;;;;;;;;;5070286;27;96921;-77
2022/01/08 21:06:13;;;;;;;10.65;6.47;;;;;;;;;;5078810;27;97336;-75
2022/01/08 21:08:41;;;;;;;10.43;6.20;;;;;;;;;;5075231;27;96795;-74
2022/01/08 21:11:09;;;;;;;8.20;5.60;;;;;;;;;;5075305;27;97517;-75
2022/01/08 21:13:35;;;;;;;12.23;6.75;;;;;;;;;;5075344;27;95361;-82
2022/01/08 21:16:02;;;;;;;10.18;5.30;;;;;;;;;;5075284;27;97264;-74
2022/01/08 21:18:28;;;;;;;8.40;5.38;;;;;;;;;;5075474;27;97126;-78
2022/01/08 21:20:55;;;;;;;12.32;6.07;;;;;;;;;;5076032;27;94961;-79
2022/01/08 21:23:21;;;;;;;11.93;7.10;;;;;;;;;;5074589;27;96718;-74
2022/01/08 21:25:48;;;;;;;10.35;5.80;;;;;;;;;;5075716;27;97252;-75
2022/01/08 21:28:15;;;;;;;10.05;6.32;;;;;;;;;;5078838;27;95319;-77
2022/01/08 21:30:42;;;;;;;8.43;6.03;;;;;;;;;;5074723;27;97406;-79
2022/01/08 21:33:10;;;;;;;10.65;6.80;;;;;;;;;;5075096;27;95316;-75
2022/01/08 21:35:39;;;;;;;10.05;6.25;;;;;;;;;;5075371;27;96721;-81
2022/01/08 21:38:06;;;;;;;6.82;5.03;;;;;;;;;;5074879;27;96330;-78
2022/01/08 21:40:33;;;;;;;10.43;5.90;;;;;;;;;;5076110;27;95389;-80
2022/01/08 21:43:02;;;;;;;8.68;5.80;;;;;;;;;;5084439;27;97044;-82
2022/01/08 21:45:33;;;;;;;10.35;6.50;;;;;;;;;;5082207;27;98023;-81
2022/01/08 21:48:00;;;;;;;12.00;6.67;;;;;;;;;;5080618;27;95358;-81
2022/01/08 21:50:30;;;;;;;10.02;6.57;;;;;;;;;;5078636;27;96715;-82
2022/01/08 21:52:57;;;;;;;12.60;6.78;;;;;;;;;;5073718;27;95444;-82
2022/01/08 21:55:23;;;;;;;11.05;6.18;;;;;;;;;;5073631;27;97112;-85
2022/01/08 21:57:50;;;;;;;11.32;6.70;;;;;;;;;;5074924;27;97304;-85
2022/01/08 22:00:16;;;;;;;7.93;5.75;;;;;;;;;;5074363;27;95323;-84
2022/01/08 22:02:43;;;;;;;14.80;7.05;;;;;;;;;;5075149;27;96714;-82
2022/01/08 22:05:10;;;;;;;11.57;7.35;;;;;;;;;;5074392;27;97259;-79
2022/01/08 22:07:38;;;;;;;10.20;6.38;;;;;;;;;;5074990;27;95375;-84
2022/01/08 22:10:05;;;;;;;9.82;6.18;;;;;;;;;;5074686;27;96732;-83
2022/01/08 22:12:32;;;;;;;12.45;6.88;;;;;;;;;;5077038;27;97248;-83
2022/01/08 22:14:58;;;;;;;10.13;7.22;;;;;;;;;;5074894;27;96767;-84
2022/01/08 22:17:24;;;;;;;12.27;7.80;;;;;;;;;;5074498;27;97245;-83
2022/01/08 22:19:51;;;;;;;10.55;7.00;;;;;;;;;;5074293;27;95399;-83
2022/01/08 22:22:17;;;;;;;10.98;7.47;;;;;;;;;;5074317;27;96791;-83
2022/01/08 22:24:43;;;;;;;11.75;7.88;;;;;;;;;;5072822;27;97708;-83
2022/01/08 22:27:10;;;;;;;9.55;7.15;;;;;;;;;;5053794;27;95330;-83
2022/01/08 22:29:37;;;;;;;10.15;7.15;;;;;;;;;;5054558;27;96864;-82
2022/01/08 22:32:03;;;;;;;11.05;7.15;;;;;;;;;;5057097;27;96182;-84
2022/01/08 22:34:30;;;;;;;11.18;7.40;;;;;;;;;;5053619;27;96989;-82
2022/01/08 22:36:58;;;;;;;13.50;8.85;;;;;;;;;;5072691;27;97316;-81
2022/01/08 22:39:24;;;;;;;13.38;7.97;;;;;;;;;;5074494;27;95285;-83
2022/01/08 22:41:52;;;;;;;13.43;7.05;;;;;;;;;;5074046;27;96809;-82
2022/01/08 22:44:19;;;;;;;12.35;7.47;;;;;;;;;;5073615;27;97275;-83
2022/01/08 22:46:45;;;;;;;12.48;7.10;;;;;;;;;;5074023;27;95190;-83
2022/01/08 22:49:11;;;;;;;11.13;7.32;;;;;;;;;;5073763;27;96828;-82
2022/01/08 22:51:38;;;;;;;12.10;7.70;;;;;;;;;;5072936;27;97262;-83
2022/01/08 22:54:04;;;;;;;30.75;8.38;;;;;;;;;;5077741;27;95245;-82
2022/01/08 22:56:31;;;;;;;18.85;10.88;;;;;;;;;;5073058;27;97076;-82
2022/01/08 22:58:57;;;;;;;34.10;19.50;;;;;;;;;;5073852;27;95352;-83
2022/01/08 23:01:23;;;;;;;18.80;11.68;;;;;;;;;;5072785;27;96674;-82
2022/01/08 23:03:50;;;;;;;14.00;8.57;;;;;;;;;;5073224;27;97463;-83
2022/01/08 23:06:19;;;;;;;16.33;8.85;;;;;;;;;;5073960;27;95308;-83
2022/01/08 23:08:46;;;;;;;12.77;8.60;;;;;;;;;;5072582;27;97045;-82
2022/01/08 23:11:12;;;;;;;14.20;8.75;;;;;;;;;;5073201;27;97340;-79
2022/01/08 23:13:38;;;;;;;13.30;8.55;;;;;;;;;;5072858;27;95311;-82
2022/01/08 23:16:05;;;;;;;15.20;7.78;;;;;;;;;;5074635;27;98191;-82
2022/01/08 23:18:35;;;;;;;10.57;7.00;;;;;;;;;;5073008;27;95472;-81
2022/01/08 23:21:02;;;;;;;13.93;7.68;;;;;;;;;;5074041;27;97017;-81
2022/01/08 23:23:29;;;;;;;13.68;7.20;;;;;;;;;;5072906;27;97339;-83